Time;durP1;ratioP1;P1;durP2;ratioP2;P2;SDS_P1;SDS_P2;PMS_P1;PMS_P2;Temp;Humidity;BMP_temperature;BMP_pressure;BME280_temperature;BME280_humidity;BME280_pressure;Samples;Min_cycle;Max_cycle;Signal;HPM_P1;HPM_P2
2021/06/18 00:00:16;;;;;;;9.10;8.50;;;;;;;;;;5061959;28;20455;-59
2021/06/18 00:02:43;;;;;;;10.53;9.60;;;;;;;;;;5054721;28;20228;-59
2021/06/18 00:05:10;;;;;;;10.30;9.40;;;;;;;;;;5055874;28;20829;-58
2021/06/18 00:07:35;;;;;;;9.73;8.80;;;;;;;;;;5056657;28;21007;-59
2021/06/18 00:10:06;;;;;;;9.73;9.00;;;;;;;;;;5038607;28;20542;-60
2021/06/18 00:12:31;;;;;;;10.27;9.27;;;;;;;;;;5056917;28;20213;-59
2021/06/18 00:14:59;;;;;;;10.30;9.50;;;;;;;;;;5056178;28;20451;-59
2021/06/18 00:17:25;;;;;;;8.73;8.10;;;;;;;;;;5056519;28;20221;-59
2021/06/18 00:19:51;;;;;;;8.77;8.17;;;;;;;;;;5056503;28;20976;-59
2021/06/18 00:22:16;;;;;;;9.40;8.80;;;;;;;;;;5055930;28;20486;-58
2021/06/18 00:24:41;;;;;;;10.30;9.57;;;;;;;;;;5055777;28;20217;-58
2021/06/18 00:27:07;;;;;;;9.80;9.10;;;;;;;;;;5056044;28;20217;-59
2021/06/18 00:29:32;;;;;;;8.93;8.23;;;;;;;;;;5056156;28;20221;-59
2021/06/18 00:31:57;;;;;;;10.13;9.43;;;;;;;;;;5055754;28;20209;-58
2021/06/18 00:34:22;;;;;;;9.23;8.53;;;;;;;;;;5055790;28;20295;-59
2021/06/18 00:36:48;;;;;;;10.60;8.67;;;;;;;;;;5056185;28;20224;-58
2021/06/18 00:39:13;;;;;;;9.77;9.07;;;;;;;;;;5055809;28;20308;-59
2021/06/18 00:41:38;;;;;;;9.93;9.17;;;;;;;;;;5055915;28;20225;-59
2021/06/18 00:44:04;;;;;;;9.60;8.70;;;;;;;;;;5055457;28;20317;-58
2021/06/18 00:46:29;;;;;;;9.13;8.43;;;;;;;;;;5055047;28;20296;-59
2021/06/18 00:48:54;;;;;;;10.80;9.77;;;;;;;;;;5054583;28;20213;-59
2021/06/18 00:51:20;;;;;;;9.87;9.17;;;;;;;;;;5054991;28;20217;-59
2021/06/18 00:53:46;;;;;;;9.67;8.87;;;;;;;;;;5056035;28;20213;-59
2021/06/18 00:56:11;;;;;;;10.73;9.70;;;;;;;;;;5055506;28;20227;-58
2021/06/18 00:58:37;;;;;;;10.30;9.50;;;;;;;;;;5054921;28;20463;-58
2021/06/18 01:01:03;;;;;;;10.00;9.20;;;;;;;;;;5055159;28;20625;-58
2021/06/18 01:03:28;;;;;;;11.10;10.20;;;;;;;;;;5054750;28;20245;-58
2021/06/18 01:05:53;;;;;;;10.50;9.50;;;;;;;;;;5055578;28;20236;-59
2021/06/18 01:08:23;;;;;;;10.27;9.47;;;;;;;;;;5055204;28;20243;-58
2021/06/18 01:11:17;;;;;;;10.50;9.70;;;;;;;;;;5055471;28;20236;-58
2021/06/18 01:13:52;;;;;;;10.40;9.50;;;;;;;;;;5053980;28;20516;-59
2021/06/18 01:16:34;;;;;;;9.90;9.20;;;;;;;;;;5054585;28;20462;-59
2021/06/18 01:19:06;;;;;;;10.97;10.17;;;;;;;;;;5055106;28;20436;-58
2021/06/18 01:21:34;;;;;;;10.27;9.57;;;;;;;;;;5055487;28;20464;-58
2021/06/18 01:24:12;;;;;;;10.10;9.30;;;;;;;;;;5053794;28;20456;-58
2021/06/18 01:27:14;;;;;;;11.10;10.10;;;;;;;;;;5053980;28;20788;-58
2021/06/18 01:29:44;;;;;;;10.27;9.47;;;;;;;;;;5053905;28;20447;-59
2021/06/18 01:32:14;;;;;;;10.07;9.30;;;;;;;;;;5055049;28;20466;-58
2021/06/18 01:34:40;;;;;;;11.33;10.20;;;;;;;;;;5053925;28;20514;-59
2021/06/18 01:37:08;;;;;;;10.30;9.60;;;;;;;;;;5054193;28;20516;-58
2021/06/18 01:39:34;;;;;;;11.07;10.17;;;;;;;;;;5055067;28;20942;-58
2021/06/18 01:42:02;;;;;;;10.10;9.40;;;;;;;;;;5053610;28;20455;-58
2021/06/18 01:44:28;;;;;;;11.00;10.20;;;;;;;;;;5053637;28;20223;-58
2021/06/18 01:46:53;;;;;;;10.37;9.50;;;;;;;;;;5052972;28;20527;-58
2021/06/18 01:49:19;;;;;;;11.90;10.77;;;;;;;;;;5053862;28;20543;-59
2021/06/18 01:51:45;;;;;;;11.50;10.60;;;;;;;;;;5053549;28;20664;-59
2021/06/18 01:54:11;;;;;;;9.70;9.00;;;;;;;;;;5053650;28;20451;-58
2021/06/18 01:56:40;;;;;;;10.20;9.40;;;;;;;;;;5053958;28;20529;-60
2021/06/18 01:59:06;;;;;;;11.13;10.17;;;;;;;;;;5054369;28;20451;-58
2021/06/18 02:01:37;;;;;;;11.30;10.47;;;;;;;;;;5053600;28;20530;-59
2021/06/18 02:04:06;;;;;;;11.10;10.30;;;;;;;;;;5053226;28;20471;-58
2021/06/18 02:06:32;;;;;;;11.60;10.50;;;;;;;;;;5053547;28;20798;-59
2021/06/18 02:08:59;;;;;;;10.77;9.97;;;;;;;;;;5053122;28;21026;-58
2021/06/18 02:11:26;;;;;;;14.93;11.67;;;;;;;;;;5054416;28;20564;-59
2021/06/18 02:13:54;;;;;;;11.40;10.40;;;;;;;;;;5054039;28;21000;-59
2021/06/18 02:16:19;;;;;;;10.23;9.30;;;;;;;;;;5053326;28;20464;-58
2021/06/18 02:18:46;;;;;;;10.23;9.40;;;;;;;;;;5052836;28;20480;-59
2021/06/18 02:21:13;;;;;;;12.17;11.17;;;;;;;;;;5054120;28;20217;-58
2021/06/18 02:23:39;;;;;;;11.00;10.20;;;;;;;;;;5054122;28;20464;-58
2021/06/18 02:26:05;;;;;;;12.87;11.70;;;;;;;;;;5052853;28;20459;-58
2021/06/18 02:28:30;;;;;;;10.90;9.90;;;;;;;;;;5054056;28;20278;-59
2021/06/18 02:30:56;;;;;;;10.40;9.60;;;;;;;;;;5053485;28;20224;-59
2021/06/18 02:33:21;;;;;;;10.80;10.10;;;;;;;;;;5053860;28;20255;-58
2021/06/18 02:35:47;;;;;;;11.83;10.67;;;;;;;;;;5053658;28;20220;-58
2021/06/18 02:38:13;;;;;;;10.90;10.10;;;;;;;;;;5053835;28;20649;-58
2021/06/18 02:40:39;;;;;;;11.00;10.10;;;;;;;;;;5053612;28;20224;-58
2021/06/18 02:43:05;;;;;;;11.67;10.80;;;;;;;;;;5053472;28;20938;-59
2021/06/18 02:45:30;;;;;;;11.57;10.77;;;;;;;;;;5053750;28;20460;-58
2021/06/18 02:48:14;;;;;;;11.57;10.67;;;;;;;;;;5052536;28;20216;-58
2021/06/18 02:50:43;;;;;;;10.63;9.73;;;;;;;;;;5053821;28;20220;-58
2021/06/18 02:53:26;;;;;;;11.10;10.20;;;;;;;;;;5053413;28;20925;-58
2021/06/18 02:55:59;;;;;;;11.70;10.70;;;;;;;;;;5053162;28;20448;-59
2021/06/18 02:58:33;;;;;;;12.53;11.47;;;;;;;;;;5052733;28;20453;-59
2021/06/18 03:01:02;;;;;;;11.43;10.53;;;;;;;;;;5052351;28;20502;-59
2021/06/18 03:03:35;;;;;;;11.47;10.63;;;;;;;;;;5053565;28;20456;-59
2021/06/18 03:06:02;;;;;;;11.10;10.23;;;;;;;;;;5052392;28;20459;-59
2021/06/18 03:08:37;;;;;;;12.10;10.90;;;;;;;;;;5053661;28;20467;-59
2021/06/18 03:11:03;;;;;;;12.07;11.17;;;;;;;;;;5053071;28;20459;-59
2021/06/18 03:13:41;;;;;;;11.57;10.80;;;;;;;;;;5053511;28;20452;-59
2021/06/18 03:16:09;;;;;;;10.73;10.03;;;;;;;;;;5053229;28;20455;-58
2021/06/18 03:18:35;;;;;;;11.70;10.70;;;;;;;;;;5053552;28;20517;-59
2021/06/18 03:21:01;;;;;;;11.47;10.60;;;;;;;;;;5051926;28;20460;-58
2021/06/18 03:23:27;;;;;;;12.20;11.20;;;;;;;;;;5052357;28;20463;-58
2021/06/18 03:25:53;;;;;;;12.33;11.33;;;;;;;;;;5053011;28;20213;-60
2021/06/18 03:28:19;;;;;;;12.40;11.50;;;;;;;;;;5052655;28;20545;-65
2021/06/18 03:30:47;;;;;;;11.70;10.67;;;;;;;;;;5052506;28;20985;-66
2021/06/18 03:33:13;;;;;;;13.40;12.50;;;;;;;;;;5051923;28;20505;-66
2021/06/18 03:35:38;;;;;;;12.47;11.30;;;;;;;;;;5052439;28;20459;-65
2021/06/18 03:38:04;;;;;;;12.40;11.50;;;;;;;;;;5051705;28;20232;-66
2021/06/18 03:40:30;;;;;;;14.20;13.13;;;;;;;;;;5052311;28;20310;-66
2021/06/18 03:42:55;;;;;;;13.20;12.20;;;;;;;;;;5052678;28;20228;-65
2021/06/18 03:45:21;;;;;;;13.50;12.20;;;;;;;;;;5035674;28;20460;-65
2021/06/18 03:47:47;;;;;;;12.40;11.40;;;;;;;;;;5052220;28;20236;-66
2021/06/18 03:50:15;;;;;;;12.77;11.80;;;;;;;;;;5051711;28;20543;-66
2021/06/18 03:52:40;;;;;;;14.17;13.07;;;;;;;;;;5052217;28;20815;-63
2021/06/18 03:55:07;;;;;;;11.23;10.43;;;;;;;;;;5051922;28;20464;-63
2021/06/18 03:57:33;;;;;;;12.23;10.80;;;;;;;;;;5039729;28;20237;-63
2021/06/18 04:00:00;;;;;;;11.20;10.17;;;;;;;;;;5058936;28;20548;-64
2021/06/18 04:02:26;;;;;;;12.60;11.60;;;;;;;;;;5068683;28;20240;-65
2021/06/18 04:04:52;;;;;;;14.00;12.20;;;;;;;;;;5057475;28;20474;-63
2021/06/18 04:07:17;;;;;;;12.37;11.37;;;;;;;;;;5061990;28;20456;-63
2021/06/18 04:09:43;;;;;;;13.30;12.20;;;;;;;;;;5064630;28;20250;-63
2021/06/18 04:12:09;;;;;;;10.47;9.67;;;;;;;;;;5061617;28;20656;-62
2021/06/18 04:14:36;;;;;;;12.67;11.67;;;;;;;;;;5072637;28;20223;-62
2021/06/18 04:17:06;;;;;;;11.40;10.57;;;;;;;;;;5062558;28;20461;-63
2021/06/18 04:19:32;;;;;;;11.33;10.43;;;;;;;;;;5066131;28;20460;-64
2021/06/18 04:21:59;;;;;;;12.90;11.73;;;;;;;;;;5069121;28;20486;-62
2021/06/18 04:24:24;;;;;;;12.93;12.03;;;;;;;;;;5066730;28;20861;-64
2021/06/18 04:26:50;;;;;;;12.13;11.13;;;;;;;;;;5062670;28;20458;-64
2021/06/18 04:29:15;;;;;;;12.47;11.40;;;;;;;;;;5065746;28;20225;-63
2021/06/18 04:31:40;;;;;;;11.10;10.33;;;;;;;;;;5055300;28;20224;-62
2021/06/18 04:34:07;;;;;;;11.40;10.70;;;;;;;;;;5065780;28;20319;-63
2021/06/18 04:36:34;;;;;;;12.80;11.23;;;;;;;;;;5069573;28;20229;-63
2021/06/18 04:38:59;;;;;;;13.20;12.10;;;;;;;;;;5065489;28;20475;-63
2021/06/18 04:41:25;;;;;;;12.93;11.73;;;;;;;;;;5062146;28;20486;-64
2021/06/18 04:43:51;;;;;;;13.13;12.10;;;;;;;;;;5066530;28;20257;-64
2021/06/18 04:46:16;;;;;;;12.77;11.70;;;;;;;;;;5067733;28;20598;-63
2021/06/18 04:48:41;;;;;;;12.37;11.40;;;;;;;;;;5065057;28;20299;-64
2021/06/18 04:51:07;;;;;;;11.00;10.20;;;;;;;;;;5061869;28;20237;-63
2021/06/18 04:53:32;;;;;;;12.43;11.20;;;;;;;;;;5066826;28;20221;-63
2021/06/18 04:56:01;;;;;;;12.50;11.67;;;;;;;;;;5068505;28;20228;-61
2021/06/18 04:58:27;;;;;;;13.27;11.97;;;;;;;;;;5060648;28;20228;-63
2021/06/18 05:00:52;;;;;;;12.70;11.70;;;;;;;;;;5064130;28;20474;-63
2021/06/18 05:03:17;;;;;;;11.40;10.60;;;;;;;;;;5068349;28;20229;-63
2021/06/18 05:05:43;;;;;;;14.27;12.97;;;;;;;;;;5066832;28;20303;-63
2021/06/18 05:08:08;;;;;;;11.70;10.80;;;;;;;;;;5061574;28;20311;-63
2021/06/18 05:10:33;;;;;;;11.57;10.57;;;;;;;;;;5064595;28;20232;-62
2021/06/18 05:12:58;;;;;;;12.00;11.00;;;;;;;;;;5068255;28;20220;-63
2021/06/18 05:15:24;;;;;;;11.63;10.57;;;;;;;;;;5066110;28;20306;-63
2021/06/18 05:17:49;;;;;;;12.40;11.20;;;;;;;;;;5061661;28;20228;-63
2021/06/18 05:20:15;;;;;;;11.50;10.60;;;;;;;;;;5062902;28;20250;-62
2021/06/18 05:22:40;;;;;;;11.53;10.50;;;;;;;;;;5068445;28;20271;-62
2021/06/18 05:25:06;;;;;;;11.50;10.50;;;;;;;;;;5065506;28;20605;-62
2021/06/18 05:27:31;;;;;;;11.40;10.60;;;;;;;;;;5061601;28;20230;-64
2021/06/18 05:29:56;;;;;;;12.13;11.13;;;;;;;;;;5064008;28;20225;-62
2021/06/18 05:32:22;;;;;;;11.83;11.00;;;;;;;;;;5063448;28;20614;-64
2021/06/18 05:34:47;;;;;;;10.90;10.00;;;;;;;;;;5064649;28;20304;-65
2021/06/18 05:37:13;;;;;;;12.10;11.20;;;;;;;;;;5067914;28;20237;-64
2021/06/18 05:39:38;;;;;;;12.80;11.70;;;;;;;;;;5065010;28;20221;-65
2021/06/18 05:42:04;;;;;;;12.50;11.30;;;;;;;;;;5060847;28;20475;-64
2021/06/18 05:44:29;;;;;;;12.90;11.80;;;;;;;;;;5064708;28;20240;-64
2021/06/18 05:46:55;;;;;;;11.40;10.50;;;;;;;;;;5068096;28;20617;-63
2021/06/18 05:49:20;;;;;;;11.07;10.17;;;;;;;;;;5055404;28;20268;-63
2021/06/18 05:51:45;;;;;;;12.00;9.53;;;;;;;;;;5068340;28;20216;-64
2021/06/18 05:54:11;;;;;;;11.77;10.87;;;;;;;;;;5062435;28;20224;-64
2021/06/18 05:56:37;;;;;;;11.00;9.80;;;;;;;;;;5061081;28;20248;-63
2021/06/18 05:59:02;;;;;;;10.57;9.63;;;;;;;;;;5047072;28;20303;-63
2021/06/18 06:01:27;;;;;;;10.13;9.43;;;;;;;;;;5062627;28;20228;-64
2021/06/18 06:03:54;;;;;;;10.50;9.70;;;;;;;;;;5067725;28;20311;-64
2021/06/18 06:06:22;;;;;;;10.80;9.90;;;;;;;;;;5049428;28;20223;-63
2021/06/18 06:08:49;;;;;;;10.57;9.60;;;;;;;;;;5067805;28;20919;-64
2021/06/18 06:11:15;;;;;;;10.63;9.70;;;;;;;;;;5066059;28;20501;-64
2021/06/18 06:13:40;;;;;;;9.20;8.50;;;;;;;;;;5059581;28;20937;-63
2021/06/18 06:16:05;;;;;;;11.30;9.93;;;;;;;;;;5061765;28;20220;-64
2021/06/18 06:18:31;;;;;;;9.23;8.30;;;;;;;;;;5067363;28;20236;-64
2021/06/18 06:20:56;;;;;;;9.93;9.00;;;;;;;;;;5065749;28;20228;-64
2021/06/18 06:23:21;;;;;;;8.80;7.97;;;;;;;;;;5058902;28;20228;-63
2021/06/18 06:25:46;;;;;;;11.10;8.63;;;;;;;;;;5062469;28;20212;-64
2021/06/18 06:28:12;;;;;;;9.30;8.50;;;;;;;;;;5066861;28;20232;-65
2021/06/18 06:30:37;;;;;;;8.70;8.00;;;;;;;;;;5065185;28;20239;-64
2021/06/18 06:33:03;;;;;;;10.77;9.23;;;;;;;;;;5059486;28;20208;-65
2021/06/18 06:35:28;;;;;;;9.40;8.40;;;;;;;;;;5062276;28;20227;-64
2021/06/18 06:37:54;;;;;;;8.23;7.53;;;;;;;;;;5067052;28;20228;-64
2021/06/18 06:40:22;;;;;;;9.13;7.73;;;;;;;;;;5064435;28;20545;-64
2021/06/18 06:42:47;;;;;;;8.37;7.67;;;;;;;;;;5058899;28;20536;-64
2021/06/18 06:45:13;;;;;;;8.50;7.83;;;;;;;;;;5062026;28;20934;-63
2021/06/18 06:47:38;;;;;;;8.83;7.93;;;;;;;;;;5066130;28;20228;-64
2021/06/18 06:50:04;;;;;;;7.73;7.13;;;;;;;;;;5064378;28;20224;-64
2021/06/18 06:52:29;;;;;;;7.63;7.13;;;;;;;;;;5059898;28;20227;-64
2021/06/18 06:54:55;;;;;;;7.83;7.30;;;;;;;;;;5062528;28;20865;-64
2021/06/18 06:57:20;;;;;;;8.90;8.10;;;;;;;;;;5061420;28;20304;-63
2021/06/18 06:59:46;;;;;;;7.23;6.53;;;;;;;;;;5056180;28;20234;-63
2021/06/18 07:02:11;;;;;;;6.80;6.20;;;;;;;;;;5059753;28;20330;-64
2021/06/18 07:04:37;;;;;;;6.60;6.00;;;;;;;;;;5059870;28;20240;-64
2021/06/18 07:07:02;;;;;;;7.40;6.70;;;;;;;;;;5055705;28;20311;-62
2021/06/18 07:09:27;;;;;;;7.80;7.00;;;;;;;;;;5061794;28;20221;-63
2021/06/18 07:11:53;;;;;;;7.30;6.70;;;;;;;;;;5066676;28;20363;-64
2021/06/18 07:14:18;;;;;;;8.00;7.27;;;;;;;;;;5064366;28;20545;-63
2021/06/18 07:16:43;;;;;;;7.80;7.20;;;;;;;;;;5059905;28;20289;-63
2021/06/18 07:19:08;;;;;;;7.70;7.10;;;;;;;;;;5061423;28;20217;-64
2021/06/18 07:21:34;;;;;;;8.43;7.47;;;;;;;;;;5066720;28;20299;-63
2021/06/18 07:23:59;;;;;;;10.80;7.43;;;;;;;;;;5062985;28;20224;-63
2021/06/18 07:26:25;;;;;;;7.03;6.40;;;;;;;;;;5059332;28;20216;-63
2021/06/18 07:28:51;;;;;;;7.83;6.80;;;;;;;;;;5062657;28;20213;-64
2021/06/18 07:31:16;;;;;;;7.70;6.90;;;;;;;;;;5065994;28;20810;-63
2021/06/18 07:33:41;;;;;;;9.77;5.80;;;;;;;;;;5063582;28;20636;-64
2021/06/18 07:36:07;;;;;;;7.40;6.70;;;;;;;;;;5059137;28;20220;-63
2021/06/18 07:38:32;;;;;;;7.13;6.53;;;;;;;;;;5063181;28;20553;-64
2021/06/18 07:40:57;;;;;;;7.03;6.47;;;;;;;;;;5066254;28;20245;-64
2021/06/18 07:43:23;;;;;;;6.77;6.17;;;;;;;;;;5063283;28;20239;-64
2021/06/18 07:45:48;;;;;;;7.33;6.63;;;;;;;;;;5063469;28;20672;-63
2021/06/18 07:48:13;;;;;;;7.20;6.60;;;;;;;;;;5066859;28;20237;-64
2021/06/18 07:50:40;;;;;;;6.93;6.47;;;;;;;;;;5070141;28;20237;-64
2021/06/18 07:53:05;;;;;;;12.67;6.83;;;;;;;;;;5065828;28;20235;-62
2021/06/18 07:55:31;;;;;;;5.80;5.30;;;;;;;;;;5062297;28;20458;-59
2021/06/18 07:57:56;;;;;;;6.97;6.20;;;;;;;;;;5057739;28;20271;-60
2021/06/18 08:00:22;;;;;;;7.27;6.77;;;;;;;;;;5067888;28;20225;-64
2021/06/18 08:02:48;;;;;;;6.23;5.67;;;;;;;;;;5068112;28;20287;-64
2021/06/18 08:05:13;;;;;;;7.93;6.13;;;;;;;;;;5064177;28;20680;-64
2021/06/18 08:07:39;;;;;;;5.93;5.43;;;;;;;;;;5068634;28;20617;-64
2021/06/18 08:10:06;;;;;;;6.73;6.10;;;;;;;;;;5069396;28;20297;-63
2021/06/18 08:12:31;;;;;;;6.33;5.83;;;;;;;;;;5064452;28;20471;-64
2021/06/18 08:14:56;;;;;;;6.30;5.70;;;;;;;;;;5062950;28;20525;-64
2021/06/18 08:17:22;;;;;;;6.87;6.03;;;;;;;;;;5068238;28;20233;-63
2021/06/18 08:19:47;;;;;;;6.63;5.90;;;;;;;;;;5069812;28;20282;-64
2021/06/18 08:22:12;;;;;;;5.23;4.60;;;;;;;;;;5063210;28;20292;-64
2021/06/18 08:24:39;;;;;;;6.80;5.50;;;;;;;;;;5062648;28;20225;-63
2021/06/18 08:27:04;;;;;;;6.03;5.43;;;;;;;;;;5068852;28;20221;-64
2021/06/18 08:29:30;;;;;;;5.97;5.37;;;;;;;;;;5069216;28;20831;-64
2021/06/18 08:31:55;;;;;;;6.20;5.47;;;;;;;;;;5063081;28;20220;-64
2021/06/18 08:34:21;;;;;;;5.20;4.70;;;;;;;;;;5062090;28;20229;-64
2021/06/18 08:36:46;;;;;;;6.57;6.07;;;;;;;;;;5069254;28;20247;-63
2021/06/18 08:39:12;;;;;;;7.30;5.20;;;;;;;;;;5068870;28;20235;-62
2021/06/18 08:41:37;;;;;;;4.73;4.33;;;;;;;;;;5062584;28;20225;-63
2021/06/18 08:44:04;;;;;;;7.40;4.80;;;;;;;;;;5062475;28;20551;-64
2021/06/18 08:46:29;;;;;;;7.13;5.87;;;;;;;;;;5049114;28;20693;-64
2021/06/18 08:48:54;;;;;;;5.63;4.70;;;;;;;;;;5062356;28;20463;-64
2021/06/18 08:51:20;;;;;;;5.67;4.73;;;;;;;;;;5048815;28;20217;-64
2021/06/18 08:53:46;;;;;;;6.23;5.57;;;;;;;;;;5061952;28;20549;-63
2021/06/18 08:56:11;;;;;;;4.90;4.40;;;;;;;;;;5067509;28;20244;-63
2021/06/18 08:58:36;;;;;;;5.60;5.00;;;;;;;;;;5044087;28;20218;-64
2021/06/18 09:01:03;;;;;;;5.57;5.17;;;;;;;;;;5067337;28;20242;-63
2021/06/18 09:03:37;;;;;;;5.33;4.93;;;;;;;;;;5067571;28;20228;-64
2021/06/18 09:06:18;;;;;;;5.43;4.40;;;;;;;;;;5050710;28;20462;-64
2021/06/18 09:08:47;;;;;;;14.40;6.03;;;;;;;;;;5068505;28;20481;-64
2021/06/18 09:11:12;;;;;;;5.57;5.07;;;;;;;;;;5066758;28;20538;-64
2021/06/18 09:13:39;;;;;;;5.00;4.60;;;;;;;;;;5061053;28;20542;-65
2021/06/18 09:16:05;;;;;;;5.03;4.60;;;;;;;;;;5063365;28;20241;-64
2021/06/18 09:18:31;;;;;;;4.77;4.27;;;;;;;;;;5068633;28;20491;-60
2021/06/18 09:21:03;;;;;;;5.37;5.00;;;;;;;;;;5066379;28;20307;-60
2021/06/18 09:23:34;;;;;;;6.03;5.43;;;;;;;;;;5061765;28;20801;-64
2021/06/18 09:26:21;;;;;;;5.87;4.97;;;;;;;;;;5061409;28;20494;-65
2021/06/18 09:29:03;;;;;;;6.20;4.83;;;;;;;;;;5053857;28;20489;-64
2021/06/18 09:31:32;;;;;;;5.10;4.70;;;;;;;;;;5061319;28;20956;-63
2021/06/18 09:33:58;;;;;;;6.77;4.63;;;;;;;;;;5062414;28;20503;-63
2021/06/18 09:36:23;;;;;;;5.17;4.70;;;;;;;;;;5068299;28;20841;-64
2021/06/18 09:38:53;;;;;;;5.27;4.57;;;;;;;;;;5066349;28;20224;-63
2021/06/18 09:41:45;;;;;;;5.60;5.00;;;;;;;;;;5061094;28;20224;-64
2021/06/18 09:44:12;;;;;;;5.30;4.90;;;;;;;;;;5061111;28;20555;-64
2021/06/18 09:46:52;;;;;;;7.23;5.80;;;;;;;;;;5064886;28;20443;-64
2021/06/18 09:49:29;;;;;;;5.50;5.00;;;;;;;;;;5067770;28;20475;-64
2021/06/18 09:51:58;;;;;;;5.10;4.63;;;;;;;;;;5067735;28;20782;-64
2021/06/18 09:54:31;;;;;;;7.17;5.60;;;;;;;;;;5052395;28;20551;-63
2021/06/18 09:58:01;;;;;;;5.50;5.00;;;;;;;;;;5062291;28;20463;-63
2021/06/18 10:00:28;;;;;;;5.80;5.30;;;;;;;;;;5038574;28;20450;-63
2021/06/18 10:03:14;;;;;;;6.67;6.07;;;;;;;;;;5064173;28;20520;-63
2021/06/18 10:06:01;;;;;;;6.77;6.27;;;;;;;;;;5049290;28;20452;-64
2021/06/18 10:08:42;;;;;;;7.50;6.80;;;;;;;;;;5067259;28;20513;-64
2021/06/18 10:11:39;;;;;;;5.50;5.00;;;;;;;;;;5058946;28;20976;-64
2021/06/18 10:14:05;;;;;;;9.80;6.47;;;;;;;;;;5054078;28;20918;-63
2021/06/18 10:16:41;;;;;;;6.43;5.93;;;;;;;;;;5060592;28;20470;-64
2021/06/18 10:27:26;;;;;;;;;;;;;;;;;;;;;
2021/06/18 10:30:36;;;;;;;5.93;5.37;;;;;;;;;;4924849;29;20800;-64
2021/06/18 10:33:44;;;;;;;13.00;6.20;;;;;;;;;;4818162;29;20553;-64
2021/06/18 10:37:07;;;;;;;6.00;5.47;;;;;;;;;;4839762;29;20533;-63
2021/06/18 10:43:14;;;;;;;8.30;7.50;;;;;;;;;;4872735;29;21039;-63
2021/06/18 10:46:28;;;;;;;6.23;5.63;;;;;;;;;;4871864;29;20551;-63
2021/06/18 10:49:51;;;;;;;;;;;;;;;;;;;;;
2021/06/18 10:53:00;;;;;;;7.10;6.50;;;;;;;;;;4870434;29;20467;-64
2021/06/18 10:59:46;;;;;;;6.10;5.57;;;;;;;;;;4947847;28;20821;-63
2021/06/18 11:02:20;;;;;;;8.40;5.40;;;;;;;;;;4963461;28;20541;-63
2021/06/18 11:05:15;;;;;;;8.40;5.80;;;;;;;;;;4980540;28;21119;-64
2021/06/18 11:08:44;;;;;;;6.43;6.03;;;;;;;;;;5043838;28;20931;-64
2021/06/18 11:11:20;;;;;;;7.03;5.33;;;;;;;;;;5042870;28;20455;-64
2021/06/18 11:14:06;;;;;;;5.80;5.20;;;;;;;;;;5057907;28;20454;-64
2021/06/18 11:16:52;;;;;;;5.70;5.07;;;;;;;;;;5058494;28;20546;-64
2021/06/18 11:19:26;;;;;;;6.00;5.40;;;;;;;;;;5066956;28;20459;-63
2021/06/18 11:21:52;;;;;;;5.90;5.40;;;;;;;;;;5064042;28;21017;-64
2021/06/18 11:24:33;;;;;;;6.07;5.57;;;;;;;;;;5065156;28;20977;-63
2021/06/18 11:27:26;;;;;;;6.20;5.17;;;;;;;;;;5052420;28;20469;-63
2021/06/18 11:30:27;;;;;;;5.17;4.77;;;;;;;;;;5057041;28;20558;-64
2021/06/18 11:32:53;;;;;;;5.30;4.90;;;;;;;;;;5070521;28;20811;-65
2021/06/18 11:35:31;;;;;;;4.93;4.63;;;;;;;;;;5066433;28;20946;-64
2021/06/18 11:37:56;;;;;;;5.87;4.60;;;;;;;;;;5063872;28;20917;-64
2021/06/18 11:40:23;;;;;;;5.20;4.80;;;;;;;;;;5066653;28;20459;-64
2021/06/18 11:42:48;;;;;;;4.87;4.47;;;;;;;;;;5051030;28;20281;-63
2021/06/18 11:45:13;;;;;;;5.47;4.97;;;;;;;;;;5068656;28;20463;-64
2021/06/18 11:47:39;;;;;;;4.90;4.50;;;;;;;;;;5074227;28;20299;-64
2021/06/18 11:50:06;;;;;;;4.95;4.40;;;;;;;;;;5067512;28;20216;-64
2021/06/18 11:52:31;;;;;;;4.78;4.47;;;;;;;;;;5066927;28;20221;-64
2021/06/18 11:55:00;;;;;;;6.05;5.45;;;;;;;;;;5054437;28;20526;-64
2021/06/18 11:57:25;;;;;;;5.28;4.97;;;;;;;;;;5066004;28;20213;-64
2021/06/18 11:59:57;;;;;;;6.78;5.50;;;;;;;;;;5064635;28;20230;-64
2021/06/18 12:02:24;;;;;;;5.03;4.60;;;;;;;;;;5056793;28;20216;-65
2021/06/18 12:05:19;;;;;;;4.88;4.47;;;;;;;;;;5065305;28;20217;-64
2021/06/18 12:07:44;;;;;;;4.75;4.35;;;;;;;;;;5057379;28;20232;-64
2021/06/18 12:10:30;;;;;;;4.78;4.47;;;;;;;;;;5069173;28;20224;-64
2021/06/18 12:12:57;;;;;;;5.82;4.53;;;;;;;;;;5073682;28;20220;-64
2021/06/18 12:15:28;;;;;;;4.80;4.40;;;;;;;;;;5080287;28;20217;-64
2021/06/18 12:18:04;;;;;;;4.28;3.97;;;;;;;;;;5074823;28;20216;-64
2021/06/18 12:20:39;;;;;;;5.05;4.35;;;;;;;;;;5069183;28;20227;-63
2021/06/18 12:23:06;;;;;;;4.72;4.35;;;;;;;;;;5073891;28;20219;-63
2021/06/18 12:25:31;;;;;;;4.32;4.03;;;;;;;;;;5082968;28;20238;-63
2021/06/18 12:27:59;;;;;;;4.70;4.18;;;;;;;;;;5075246;28;20276;-64
2021/06/18 12:30:29;;;;;;;5.03;4.05;;;;;;;;;;5094205;28;20299;-64
2021/06/18 12:32:54;;;;;;;4.50;4.20;;;;;;;;;;5091176;28;20208;-64
2021/06/18 12:35:22;;;;;;;4.60;4.15;;;;;;;;;;5092036;28;20228;-64
2021/06/18 12:38:00;;;;;;;4.35;3.95;;;;;;;;;;5088984;28;20216;-63
2021/06/18 12:40:28;;;;;;;4.30;3.97;;;;;;;;;;5093433;28;20250;-64
2021/06/18 12:42:57;;;;;;;5.68;4.82;;;;;;;;;;5077032;28;20225;-64
2021/06/18 12:45:39;;;;;;;5.25;4.10;;;;;;;;;;5076171;28;20593;-64
2021/06/18 12:48:18;;;;;;;4.47;4.15;;;;;;;;;;5074009;28;20250;-63
2021/06/18 12:51:08;;;;;;;4.25;3.95;;;;;;;;;;5076488;28;20283;-63
2021/06/18 12:53:42;;;;;;;4.40;4.10;;;;;;;;;;5077228;28;20224;-64
2021/06/18 12:56:23;;;;;;;4.88;4.57;;;;;;;;;;5075843;28;20266;-63
2021/06/18 12:58:54;;;;;;;4.68;4.28;;;;;;;;;;5075928;28;20200;-64
2021/06/18 13:01:28;;;;;;;5.03;4.53;;;;;;;;;;5078127;28;20219;-64
2021/06/18 13:04:01;;;;;;;5.47;5.05;;;;;;;;;;5077575;28;20217;-64
2021/06/18 13:06:46;;;;;;;5.20;4.80;;;;;;;;;;5077614;28;20219;-63
2021/06/18 13:09:17;;;;;;;6.53;6.10;;;;;;;;;;5076297;28;20203;-64
2021/06/18 13:11:52;;;;;;;4.43;4.13;;;;;;;;;;5072584;28;20232;-63
2021/06/18 13:14:25;;;;;;;4.80;4.50;;;;;;;;;;5055209;28;20217;-63
2021/06/18 13:16:57;;;;;;;5.47;5.18;;;;;;;;;;5052334;28;20213;-63
2021/06/18 13:20:00;;;;;;;4.47;4.18;;;;;;;;;;5050030;28;20213;-63
2021/06/18 13:22:36;;;;;;;5.22;4.90;;;;;;;;;;5029377;28;20217;-64
2021/06/18 13:25:11;;;;;;;5.00;4.57;;;;;;;;;;5046145;28;20224;-63
2021/06/18 13:27:49;;;;;;;4.35;4.15;;;;;;;;;;5055424;28;20227;-64
2021/06/18 13:30:20;;;;;;;4.97;4.68;;;;;;;;;;5054861;28;20217;-64
2021/06/18 13:32:51;;;;;;;4.57;3.88;;;;;;;;;;5053328;28;20532;-63
2021/06/18 13:35:19;;;;;;;4.60;4.20;;;;;;;;;;5059863;28;20220;-63
2021/06/18 13:38:01;;;;;;;4.80;4.50;;;;;;;;;;5068485;28;20265;-63
2021/06/18 13:40:39;;;;;;;4.90;4.40;;;;;;;;;;5072511;28;20223;-62
2021/06/18 13:43:09;;;;;;;4.35;4.05;;;;;;;;;;5073668;28;20216;-63
2021/06/18 13:45:39;;;;;;;4.70;4.40;;;;;;;;;;5070431;28;20219;-62
2021/06/18 13:48:06;;;;;;;4.53;4.22;;;;;;;;;;5069261;28;20215;-62
2021/06/18 13:50:39;;;;;;;5.35;4.85;;;;;;;;;;5065730;28;20217;-64
2021/06/18 13:53:05;;;;;;;4.70;4.40;;;;;;;;;;5041073;28;20213;-63
2021/06/18 13:55:30;;;;;;;5.10;4.50;;;;;;;;;;5040679;28;20224;-63
2021/06/18 13:57:55;;;;;;;5.45;4.38;;;;;;;;;;5049130;28;20267;-64
2021/06/18 14:00:21;;;;;;;4.60;4.20;;;;;;;;;;5062585;28;20617;-63
2021/06/18 14:02:46;;;;;;;5.93;5.00;;;;;;;;;;5078637;28;20223;-64
2021/06/18 14:05:12;;;;;;;5.00;4.60;;;;;;;;;;5057356;28;20204;-64
2021/06/18 14:07:37;;;;;;;5.20;4.70;;;;;;;;;;5068171;28;20281;-66
2021/06/18 14:10:04;;;;;;;6.87;6.20;;;;;;;;;;5063735;28;20227;-64
2021/06/18 14:12:29;;;;;;;5.17;4.60;;;;;;;;;;5069081;28;20217;-62
2021/06/18 14:17:30;;;;;;;7.17;6.57;;;;;;;;;;5064240;28;20232;-62
2021/06/18 14:19:56;;;;;;;7.80;5.10;;;;;;;;;;5036018;28;20455;-62
2021/06/18 14:22:21;;;;;;;5.17;4.67;;;;;;;;;;5035423;28;20838;-62
2021/06/18 14:24:47;;;;;;;6.03;5.43;;;;;;;;;;5036488;28;20456;-62
2021/06/18 14:27:12;;;;;;;5.90;5.00;;;;;;;;;;5033506;28;20217;-62
2021/06/18 14:29:38;;;;;;;5.37;4.87;;;;;;;;;;5034073;28;20275;-62
2021/06/18 14:32:05;;;;;;;6.13;5.57;;;;;;;;;;5035622;28;20282;-63
2021/06/18 14:34:31;;;;;;;6.57;5.10;;;;;;;;;;5050166;28;20252;-63
2021/06/18 14:36:56;;;;;;;6.10;5.50;;;;;;;;;;5034758;28;20943;-63
2021/06/18 14:39:21;;;;;;;5.53;5.07;;;;;;;;;;5034157;28;20229;-62
2021/06/18 14:41:48;;;;;;;5.70;5.20;;;;;;;;;;5034403;28;20260;-63
2021/06/18 14:44:13;;;;;;;5.57;5.07;;;;;;;;;;5034312;28;20226;-62
2021/06/18 14:46:39;;;;;;;5.47;5.00;;;;;;;;;;5044127;28;20466;-63
2021/06/18 14:49:05;;;;;;;6.53;5.70;;;;;;;;;;5054379;28;20544;-62
2021/06/18 14:51:34;;;;;;;5.40;4.87;;;;;;;;;;5053988;28;20205;-62
2021/06/18 14:54:00;;;;;;;5.93;5.43;;;;;;;;;;5053778;28;20596;-62
2021/06/18 14:56:25;;;;;;;5.87;5.43;;;;;;;;;;5053631;28;20459;-62
2021/06/18 14:58:50;;;;;;;6.10;5.57;;;;;;;;;;5053885;28;20236;-63
2021/06/18 15:01:15;;;;;;;5.70;5.20;;;;;;;;;;5062614;28;20224;-62
2021/06/18 15:03:43;;;;;;;7.00;6.30;;;;;;;;;;5072721;28;20304;-63
2021/06/18 15:06:08;;;;;;;6.77;6.00;;;;;;;;;;5073493;28;20222;-62
2021/06/18 15:08:34;;;;;;;5.70;5.10;;;;;;;;;;5073740;28;20494;-63